createdAt,value
2022-10-18T00:00:22.012Z,96824.28
2022-10-18T00:02:50.788Z,96819.31
2022-10-18T00:05:18.426Z,96817.69
2022-10-18T00:07:45.852Z,96816.88
2022-10-18T00:10:13.299Z,96813.47
2022-10-18T00:12:41.457Z,96809.50
2022-10-18T00:15:10.251Z,96805.56
2022-10-18T00:17:38.677Z,96803.72
2022-10-18T00:20:08.833Z,96810.09
2022-10-18T00:22:37.593Z,96809.53
2022-10-18T00:25:06.137Z,96806.16
2022-10-18T00:27:34.520Z,96806.41
2022-10-18T00:30:01.992Z,96790.91
2022-10-18T00:32:29.564Z,96808.47
2022-10-18T00:34:57.287Z,96812.91
2022-10-18T00:37:26.059Z,96810.00
2022-10-18T00:39:53.507Z,96802.38
2022-10-18T00:42:23.565Z,96798.69
2022-10-18T00:45:20.856Z,96797.34
2022-10-18T00:47:53.084Z,96794.47
2022-10-18T00:50:22.191Z,96788.41
2022-10-18T00:52:54.057Z,96787.34
2022-10-18T00:55:21.848Z,96793.22
2022-10-18T00:57:50.705Z,96793.03
2022-10-18T01:00:19.485Z,96784.66
2022-10-18T01:02:47.825Z,96773.59
2022-10-18T01:05:17.616Z,96787.50
2022-10-18T01:08:08.399Z,96789.59
2022-10-18T01:10:42.648Z,96783.81
2022-10-18T01:13:25.922Z,96788.53
2022-10-18T01:16:01.136Z,96793.75
2022-10-18T01:18:34.945Z,96790.06
2022-10-18T01:21:17.389Z,96788.72
2022-10-18T01:24:16.323Z,96793.19
2022-10-18T01:27:03.081Z,96790.06
2022-10-18T01:29:43.274Z,96788.78
2022-10-18T01:32:15.897Z,96795.84
2022-10-18T01:34:46.720Z,96793.16
2022-10-18T01:37:17.922Z,96793.16
2022-10-18T01:39:47.743Z,96778.91
2022-10-18T01:42:19.714Z,96789.72
2022-10-18T01:44:49.344Z,96792.06
2022-10-18T01:47:19.177Z,96785.22
2022-10-18T01:49:46.845Z,96786.25
2022-10-18T01:52:15.315Z,96789.94
2022-10-18T01:54:45.998Z,96791.78
2022-10-18T01:57:22.797Z,96802.31
2022-10-18T01:59:59.294Z,96797.81
2022-10-18T02:02:41.452Z,96792.00
2022-10-18T02:05:18.730Z,96794.41
2022-10-18T02:08:00.341Z,96770.13
2022-10-18T02:10:43.404Z,96797.28
2022-10-18T02:13:12.348Z,96798.59
2022-10-18T02:15:44.744Z,96794.41
2022-10-18T02:18:19.272Z,96797.78
2022-10-18T02:20:48.736Z,96790.69
2022-10-18T02:23:21.739Z,96797.03
2022-10-18T02:25:49.535Z,96797.28
2022-10-18T02:28:17.029Z,96798.31
2022-10-18T02:30:52.473Z,96803.03
2022-10-18T02:33:28.575Z,96799.88
2022-10-18T02:36:02.993Z,96793.84
2022-10-18T02:38:32.536Z,96795.47
2022-10-18T02:41:00.577Z,96792.03
2022-10-18T02:43:27.995Z,96800.72
2022-10-18T02:45:55.542Z,96792.81
2022-10-18T02:48:24.307Z,96794.38
2022-10-18T02:50:51.741Z,96784.94
2022-10-18T02:53:19.177Z,96777.03
2022-10-18T02:55:46.638Z,96769.69
2022-10-18T02:58:14.675Z,96754.25
2022-10-18T03:00:42.086Z,96741.09
2022-10-18T03:03:09.481Z,96753.38
2022-10-18T03:05:38.272Z,96753.31
2022-10-18T03:08:05.839Z,96750.72
2022-10-18T03:10:33.248Z,96761.19
2022-10-18T03:13:00.715Z,96752.25
2022-10-18T03:15:28.144Z,96759.03
2022-10-18T03:17:55.616Z,96776.56
2022-10-18T03:20:23.308Z,96764.75
2022-10-18T03:22:52.047Z,96778.41
2022-10-18T03:25:19.477Z,96783.97
2022-10-18T03:27:46.896Z,96784.69
2022-10-18T03:30:14.440Z,96784.66
2022-10-18T03:32:42.044Z,96802.34
2022-10-18T03:35:10.471Z,96771.25
2022-10-18T03:37:37.944Z,96797.66
2022-10-18T03:40:08.632Z,96791.34
2022-10-18T03:42:36.052Z,96795.50
2022-10-18T03:45:03.503Z,96789.94
2022-10-18T03:47:30.938Z,96782.22
2022-10-18T03:49:59.052Z,96794.91
2022-10-18T03:52:26.512Z,96791.00
2022-10-18T03:54:54.035Z,96791.78
2022-10-18T03:57:22.871Z,96793.56
2022-10-18T03:59:50.312Z,96799.13
2022-10-18T04:02:17.841Z,96794.69
2022-10-18T04:04:45.279Z,96791.78
2022-10-18T04:07:12.710Z,96799.63
2022-10-18T04:09:40.154Z,96800.91
2022-10-18T04:12:07.664Z,96797.25
2022-10-18T04:14:36.463Z,96792.81
2022-10-18T04:17:04.711Z,96806.69
2022-10-18T04:19:32.097Z,96807.78
2022-10-18T04:21:59.532Z,96799.63
2022-10-18T04:24:26.906Z,96789.84
2022-10-18T04:26:54.309Z,96796.69
2022-10-18T04:29:21.924Z,96801.69
2022-10-18T04:31:50.697Z,96800.78
2022-10-18T04:34:18.180Z,96798.44
2022-10-18T04:36:45.581Z,96791.88
2022-10-18T04:39:12.987Z,96798.94
2022-10-18T04:41:40.504Z,96814.63
2022-10-18T04:44:07.964Z,96798.88
2022-10-18T04:46:35.602Z,96810.91
2022-10-18T04:49:04.600Z,96814.50
2022-10-18T04:51:32.005Z,96818.88
2022-10-18T04:53:59.422Z,96813.16
2022-10-18T04:56:26.832Z,96815.72
2022-10-18T04:58:54.273Z,96760.19
2022-10-18T05:01:21.718Z,96812.75
2022-10-18T05:03:52.979Z,96786.75
2022-10-18T05:06:21.874Z,96809.91
2022-10-18T05:08:49.338Z,96803.75
2022-10-18T05:11:16.910Z,96805.34
2022-10-18T05:13:47.173Z,96818.28
2022-10-18T05:16:17.724Z,96828.56
2022-10-18T05:18:45.188Z,96831.44
2022-10-18T05:21:12.662Z,96822.22
2022-10-18T05:23:41.420Z,96824.34
2022-10-18T05:26:09.603Z,96825.53
2022-10-18T05:28:40.096Z,96835.31
2022-10-18T05:31:09.481Z,96837.16
2022-10-18T05:33:37.132Z,96838.38
2022-10-18T05:36:05.031Z,96839.25
2022-10-18T05:38:32.649Z,96839.75
2022-10-18T05:41:05.264Z,96840.28
2022-10-18T05:43:32.705Z,96841.00
2022-10-18T05:46:00.128Z,96827.06
2022-10-18T05:48:27.537Z,96839.00
2022-10-18T05:50:54.928Z,96832.66
2022-10-18T05:53:36.171Z,96832.66
2022-10-18T05:56:06.863Z,96840.03
2022-10-18T05:58:34.850Z,96835.28
2022-10-18T06:01:03.067Z,96831.38
2022-10-18T06:03:31.369Z,96832.16
2022-10-18T06:06:02.407Z,96838.16
2022-10-18T06:08:29.917Z,96840.03
2022-10-18T06:10:57.635Z,96845.75
2022-10-18T06:13:26.380Z,96836.84
2022-10-18T06:15:56.820Z,96846.81
2022-10-18T06:18:24.255Z,96845.28
2022-10-18T06:20:57.436Z,96837.72
2022-10-18T06:23:24.919Z,96845.75
2022-10-18T06:25:52.335Z,96852.34
2022-10-18T06:28:19.990Z,96843.41
2022-10-18T06:30:48.823Z,96855.25
2022-10-18T06:33:16.304Z,96860.03
2022-10-18T06:35:43.684Z,96858.94
2022-10-18T06:38:11.104Z,96861.59
2022-10-18T06:40:38.613Z,96854.50
2022-10-18T06:43:20.165Z,96863.09
2022-10-18T06:45:50.461Z,96861.56
2022-10-18T06:50:56.711Z,96861.94
2022-10-18T06:53:24.581Z,96852.53
2022-10-18T06:55:52.077Z,96864.06
2022-10-18T06:58:19.807Z,96864.09
2022-10-18T07:00:47.491Z,96859.63
2022-10-18T07:03:16.250Z,96864.28
2022-10-18T07:05:43.964Z,96864.56
2022-10-18T07:08:11.380Z,96868.31
2022-10-18T07:10:38.779Z,96875.75
2022-10-18T07:13:30.901Z,96882.56
2022-10-18T07:16:06.221Z,96899.81
2022-10-18T07:18:36.530Z,96885.66
2022-10-18T07:21:05.543Z,96893.25
2022-10-18T07:23:34.705Z,96895.38
2022-10-18T07:26:02.897Z,96908.22
2022-10-18T07:28:31.113Z,96904.28
2022-10-18T07:31:02.401Z,96906.97
2022-10-18T07:33:34.716Z,96912.03
2022-10-18T07:36:02.915Z,96908.16
2022-10-18T07:38:30.344Z,96907.91
2022-10-18T07:40:58.443Z,96910.72
2022-10-18T07:43:25.888Z,96917.88
2022-10-18T07:45:53.884Z,96912.84
2022-10-18T07:48:21.359Z,96936.38
2022-10-18T07:50:50.196Z,96911.31
2022-10-18T07:53:17.656Z,96933.78
2022-10-18T07:55:45.547Z,96933.50
2022-10-18T07:58:13.115Z,96938.78
2022-10-18T08:00:40.975Z,96936.44
2022-10-18T08:03:08.506Z,96926.75
2022-10-18T08:05:35.918Z,96938.81
2022-10-18T08:08:07.935Z,96939.06
2022-10-18T08:10:36.603Z,96942.28
2022-10-18T08:13:04.015Z,96945.28
2022-10-18T08:15:31.460Z,96942.66
2022-10-18T08:17:58.905Z,96948.94
2022-10-18T08:20:30.743Z,96950.81
2022-10-18T08:23:00.384Z,96955.38
2022-10-18T08:25:29.607Z,96959.56
2022-10-18T08:27:57.276Z,96956.72
2022-10-18T08:30:24.690Z,96958.56
2022-10-18T08:32:52.101Z,96949.66
2022-10-18T08:35:19.620Z,96954.13
2022-10-18T08:37:48.348Z,96950.00
2022-10-18T08:40:16.534Z,96953.22
2022-10-18T08:42:59.064Z,96944.59
2022-10-18T08:45:41.818Z,96944.13
2022-10-18T08:48:22.619Z,96948.34
2022-10-18T08:50:51.766Z,96955.00
2022-10-18T08:53:25.543Z,96963.94
2022-10-18T08:55:58.753Z,96964.81
2022-10-18T08:58:31.990Z,96974.28
2022-10-18T09:01:08.315Z,96968.97
2022-10-18T09:03:56.757Z,96969.28
2022-10-18T09:06:30.030Z,96977.09
2022-10-18T09:09:15.245Z,96974.22
2022-10-18T09:11:58.140Z,96975.31
2022-10-18T09:14:51.101Z,96976.34
2022-10-18T09:17:26.051Z,96972.69
2022-10-18T09:20:03.917Z,96979.84
2022-10-18T09:22:43.428Z,96975.66
2022-10-18T09:25:19.797Z,96983.56
2022-10-18T09:27:53.359Z,96986.75
2022-10-18T09:30:34.452Z,96985.72
2022-10-18T09:33:15.839Z,96991.75
2022-10-18T09:35:45.612Z,97003.34
2022-10-18T09:38:16.949Z,96989.81
2022-10-18T09:40:51.620Z,97007.38
2022-10-18T09:43:23.811Z,97006.59
2022-10-18T09:45:55.345Z,97013.63
2022-10-18T09:48:27.952Z,97013.91
2022-10-18T09:50:59.505Z,97010.97
2022-10-18T09:53:37.380Z,97013.13
2022-10-18T09:56:07.744Z,97015.84
2022-10-18T09:58:43.136Z,97009.25
2022-10-18T10:01:15.146Z,97013.03
2022-10-18T10:03:43.166Z,97010.13
2022-10-18T10:06:24.047Z,97014.97
2022-10-18T10:08:56.533Z,97008.44
2022-10-18T10:11:29.490Z,97009.78
2022-10-18T10:13:58.667Z,97014.00
2022-10-18T10:16:27.968Z,97015.06
2022-10-18T10:18:55.935Z,97015.63
2022-10-18T10:21:23.536Z,97017.72
2022-10-18T10:23:55.380Z,97014.09
2022-10-18T10:26:25.464Z,97017.25
2022-10-18T10:28:53.012Z,97012.50
2022-10-18T10:31:29.930Z,97027.00
2022-10-18T10:34:02.434Z,97020.41
2022-10-18T10:36:31.020Z,97022.00
2022-10-18T10:39:11.827Z,97034.13
2022-10-18T10:41:41.818Z,97018.81
2022-10-18T10:44:17.002Z,97035.38
2022-10-18T10:46:46.471Z,97032.75
2022-10-18T10:49:39.158Z,97030.38
2022-10-18T10:52:15.426Z,97039.00
2022-10-18T10:54:55.743Z,97039.28
2022-10-18T10:57:29.826Z,97047.19
2022-10-18T10:59:59.542Z,97037.69
2022-10-18T11:02:32.346Z,97037.91
2022-10-18T11:05:22.775Z,97031.78
2022-10-18T11:07:56.126Z,97036.75
2022-10-18T11:10:29.135Z,97042.13
2022-10-18T11:13:03.801Z,97029.53
2022-10-18T11:15:36.553Z,97035.53
2022-10-18T11:18:14.315Z,97030.09
2022-10-18T11:20:44.196Z,97039.84
2022-10-18T11:23:13.547Z,97041.41
2022-10-18T11:26:12.185Z,97033.03
2022-10-18T11:28:59.024Z,97028.50
2022-10-18T11:31:33.701Z,97028.06
2022-10-18T11:34:18.496Z,97029.75
2022-10-18T11:37:15.578Z,97028.13
2022-10-18T11:39:58.069Z,97028.72
2022-10-18T11:42:36.705Z,97027.34
2022-10-18T11:45:15.824Z,97019.22
2022-10-18T11:47:53.555Z,97014.69
2022-10-18T11:50:34.169Z,97016.00
2022-10-18T11:53:10.789Z,97025.19
2022-10-18T11:55:45.824Z,97020.97
2022-10-18T11:58:33.000Z,97025.69
2022-10-18T12:01:13.346Z,97010.81
2022-10-18T12:03:52.631Z,97015.84
2022-10-18T12:06:24.742Z,97019.31
2022-10-18T12:08:56.845Z,97024.81
2022-10-18T12:11:29.715Z,97020.81
2022-10-18T12:13:59.968Z,97020.50
2022-10-18T12:16:49.963Z,97017.09
2022-10-18T12:19:25.250Z,97020.31
2022-10-18T12:21:57.254Z,97016.72
2022-10-18T12:24:28.849Z,97024.38
2022-10-18T12:26:59.999Z,97023.06
2022-10-18T12:29:33.976Z,97023.47
2022-10-18T12:32:06.760Z,97022.81
2022-10-18T12:34:38.121Z,97018.09
2022-10-18T12:37:24.212Z,97030.19
2022-10-18T12:40:12.498Z,97026.22
2022-10-18T12:42:44.370Z,97026.56
2022-10-18T12:45:25.627Z,97017.34
2022-10-18T12:47:53.868Z,97028.91
2022-10-18T12:50:30.395Z,97010.59
2022-10-18T12:53:08.661Z,97019.06
2022-10-18T12:55:38.808Z,97019.38
2022-10-18T12:58:23.492Z,97009.97
2022-10-18T13:01:01.076Z,97013.72
2022-10-18T13:04:00.885Z,97002.69
2022-10-18T13:07:07.806Z,97000.06
2022-10-18T13:09:38.096Z,96994.03
2022-10-18T13:12:38.782Z,96999.56
2022-10-18T13:15:26.553Z,96997.47
2022-10-18T13:18:01.024Z,96991.94
2022-10-18T13:20:38.514Z,96995.88
2022-10-18T13:23:20.609Z,96991.91
2022-10-18T13:25:57.673Z,96992.59
2022-10-18T13:28:31.788Z,97000.69
2022-10-18T13:31:09.684Z,97014.69
2022-10-18T13:33:39.550Z,97001.00
2022-10-18T13:36:23.131Z,96999.66
2022-10-18T13:39:02.903Z,97006.22
2022-10-18T13:41:35.469Z,97010.72
2022-10-18T13:44:25.485Z,97012.81
2022-10-18T13:47:35.975Z,96998.47
2022-10-18T13:50:41.376Z,96999.53
2022-10-18T13:53:44.096Z,97006.44
2022-10-18T13:56:26.165Z,97011.44
2022-10-18T13:59:14.977Z,97010.41
2022-10-18T14:01:53.755Z,96995.88
2022-10-18T14:04:38.708Z,97004.59
2022-10-18T14:07:08.449Z,97010.66
2022-10-18T14:09:45.167Z,97005.88
2022-10-18T14:12:23.733Z,97003.00
2022-10-18T14:14:58.780Z,97007.19
2022-10-18T14:17:34.853Z,97013.13
2022-10-18T14:20:13.993Z,97019.06
2022-10-18T14:22:46.687Z,97015.34
2022-10-18T14:25:22.174Z,97019.56
2022-10-18T14:27:52.325Z,97008.25
2022-10-18T14:30:23.848Z,97014.91
2022-10-18T14:32:54.361Z,97012.06
2022-10-18T14:35:38.648Z,97007.84
2022-10-18T14:38:14.220Z,97013.81
2022-10-18T14:40:42.113Z,97025.09
2022-10-18T14:43:14.279Z,97021.38
2022-10-18T14:45:43.817Z,97021.38
2022-10-18T14:48:16.803Z,97018.59
2022-10-18T14:50:46.968Z,97026.47
2022-10-18T14:53:20.508Z,97016.94
2022-10-18T14:55:55.543Z,97023.22
2022-10-18T14:58:23.496Z,97011.69
2022-10-18T15:00:52.222Z,97005.38
2022-10-18T15:03:19.818Z,97013.38
2022-10-18T15:05:55.353Z,97010.25
2022-10-18T15:08:24.272Z,97011.66
2022-10-18T15:10:52.204Z,97005.91
2022-10-18T15:13:19.863Z,97000.13
2022-10-18T15:15:47.755Z,97007.22
2022-10-18T15:18:22.623Z,97010.50
2022-10-18T15:21:08.505Z,97008.13
2022-10-18T15:23:35.994Z,97013.41
2022-10-18T15:26:06.549Z,97001.09
2022-10-18T15:28:37.710Z,97002.91
2022-10-18T15:31:05.530Z,97000.78
2022-10-18T15:33:34.694Z,97008.13
2022-10-18T15:36:10.980Z,96999.38
2022-10-18T15:38:39.511Z,97000.84
2022-10-18T15:41:37.667Z,97018.72
2022-10-18T15:44:13.272Z,97001.56
2022-10-18T15:46:41.644Z,96997.81
2022-10-18T15:49:50.804Z,97007.50
2022-10-18T15:52:51.528Z,97003.38
2022-10-18T15:55:47.612Z,96998.31
2022-10-18T15:58:19.850Z,97007.19
2022-10-18T16:00:48.776Z,97002.69
2022-10-18T16:03:17.958Z,97004.66
2022-10-18T16:05:46.820Z,97004.94
2022-10-18T16:08:20.703Z,97007.22
2022-10-18T16:10:48.224Z,96991.47
2022-10-18T16:13:15.658Z,97002.97
2022-10-18T16:15:43.164Z,97002.31
2022-10-18T16:18:15.124Z,97003.63
2022-10-18T16:20:42.765Z,97010.13
2022-10-18T16:23:17.634Z,97007.88
2022-10-18T16:25:45.260Z,97011.53
2022-10-18T16:28:18.138Z,97019.16
2022-10-18T16:30:52.828Z,97020.81
2022-10-18T16:33:21.631Z,97018.19
2022-10-18T16:35:49.587Z,97025.31
2022-10-18T16:38:27.237Z,97025.59
2022-10-18T16:40:57.548Z,97025.78
2022-10-18T16:43:25.717Z,97023.50
2022-10-18T16:45:54.690Z,97022.66
2022-10-18T16:48:24.414Z,97027.66
2022-10-18T16:50:53.026Z,97021.38
2022-10-18T16:53:23.694Z,97034.63
2022-10-18T16:55:54.375Z,97030.16
2022-10-18T17:00:51.371Z,97029.81
2022-10-18T17:03:18.894Z,97040.16
2022-10-18T17:05:46.343Z,97043.47
2022-10-18T17:08:18.925Z,97041.91
2022-10-18T17:10:49.536Z,97040.75
2022-10-18T17:13:17.634Z,97049.28
2022-10-18T17:15:45.310Z,97052.84
2022-10-18T17:18:14.767Z,97057.97
2022-10-18T17:20:42.650Z,97060.97
2022-10-18T17:23:10.186Z,97064.56
2022-10-18T17:25:46.255Z,97069.78
2022-10-18T17:28:26.665Z,97065.00
2022-10-18T17:30:54.097Z,97063.13
2022-10-18T17:33:21.512Z,97067.56
2022-10-18T17:35:49.479Z,97065.63
2022-10-18T17:38:17.107Z,97049.75
2022-10-18T17:40:44.752Z,97066.41
2022-10-18T17:43:13.569Z,97072.91
2022-10-18T17:45:49.091Z,97076.00
2022-10-18T17:48:16.523Z,97075.47
2022-10-18T17:50:43.951Z,97083.03
2022-10-18T17:53:11.927Z,97063.56
2022-10-18T17:55:39.720Z,97071.72
2022-10-18T17:58:07.153Z,97071.75
2022-10-18T18:00:34.592Z,97082.94
2022-10-18T18:03:03.457Z,97076.81
2022-10-18T18:05:32.289Z,97074.47
2022-10-18T18:08:03.669Z,97080.75
2022-10-18T18:10:33.174Z,97090.41
2022-10-18T18:13:00.700Z,97088.47
2022-10-18T18:15:28.259Z,97087.31
2022-10-18T18:17:57.704Z,97087.88
2022-10-18T18:20:27.315Z,97087.31
2022-10-18T18:22:54.740Z,97087.56
2022-10-18T18:25:22.167Z,97084.31
2022-10-18T18:27:49.601Z,97086.69
2022-10-18T18:30:17.800Z,97080.63
2022-10-18T18:32:45.392Z,97081.63
2022-10-18T18:35:12.922Z,97093.16
2022-10-18T18:37:41.761Z,97089.94
2022-10-18T18:40:09.873Z,97085.91
2022-10-18T18:42:37.303Z,97085.53
2022-10-18T18:45:05.242Z,97087.19
2022-10-18T18:47:35.300Z,97083.22
2022-10-18T18:50:02.884Z,97087.94
2022-10-18T18:52:30.558Z,97089.63
2022-10-18T18:54:59.540Z,97087.09
2022-10-18T18:57:26.993Z,97084.78
2022-10-18T18:59:54.424Z,97084.38
2022-10-18T19:02:21.856Z,97083.34
2022-10-18T19:04:50.600Z,97092.13
2022-10-18T19:07:18.256Z,97091.34
2022-10-18T19:09:46.888Z,97086.97
2022-10-18T19:12:20.416Z,97089.59
2022-10-18T19:14:48.856Z,97075.63
2022-10-18T19:17:16.259Z,97072.00
2022-10-18T19:19:43.719Z,97082.38
2022-10-18T19:22:11.125Z,97084.44
2022-10-18T19:24:38.600Z,97085.66
2022-10-18T19:27:09.529Z,97071.59
2022-10-18T19:29:40.232Z,97068.00
2022-10-18T19:32:11.852Z,97066.31
2022-10-18T19:34:39.449Z,97067.03
2022-10-18T19:37:07.850Z,97067.72
2022-10-18T19:39:36.365Z,97054.78
2022-10-18T19:42:06.410Z,97072.72
2022-10-18T19:44:36.424Z,97073.72
2022-10-18T19:47:06.584Z,97074.66
2022-10-18T19:49:34.112Z,97066.34
2022-10-18T19:52:01.542Z,97073.56
2022-10-18T19:54:29.234Z,97072.53
2022-10-18T19:56:56.631Z,97074.56
2022-10-18T19:59:24.986Z,97065.03
2022-10-18T20:01:52.478Z,97078.53
2022-10-18T20:04:21.264Z,97080.97
2022-10-18T20:06:48.679Z,97074.03
2022-10-18T20:09:19.567Z,97075.31
2022-10-18T20:11:48.347Z,97077.22
2022-10-18T20:14:15.866Z,97084.03
2022-10-18T20:16:43.333Z,97074.50
2022-10-18T20:19:11.598Z,97076.94
2022-10-18T20:21:40.350Z,97082.41
2022-10-18T20:24:09.183Z,97069.31
2022-10-18T20:26:36.692Z,97077.66
2022-10-18T20:29:05.202Z,97081.28
2022-10-18T20:31:35.413Z,97080.72
2022-10-18T20:34:05.660Z,97077.75
2022-10-18T20:36:33.828Z,97069.22
2022-10-18T20:39:03.141Z,97074.66
2022-10-18T20:41:31.763Z,97068.50
2022-10-18T20:44:00.750Z,97072.25
2022-10-18T20:46:30.782Z,97070.94
2022-10-18T20:48:58.544Z,97075.41
2022-10-18T20:51:26.044Z,97074.59
2022-10-18T20:53:54.304Z,97084.84
2022-10-18T20:56:26.286Z,97082.69
2022-10-18T20:58:56.148Z,97070.78
2022-10-18T21:01:25.615Z,97074.78
2022-10-18T21:03:54.729Z,97065.44
2022-10-18T21:06:24.284Z,97068.97
2022-10-18T21:08:54.293Z,97063.53
2022-10-18T21:11:23.961Z,97071.13
2022-10-18T21:13:52.178Z,97076.38
2022-10-18T21:16:19.639Z,97078.31
2022-10-18T21:18:47.551Z,97080.47
2022-10-18T21:21:16.659Z,97073.63
2022-10-18T21:23:44.421Z,97072.59
2022-10-18T21:26:15.195Z,97064.31
2022-10-18T21:28:44.039Z,97069.22
2022-10-18T21:31:14.416Z,97075.81
2022-10-18T21:33:42.998Z,97073.06
2022-10-18T21:36:11.332Z,97072.06
2022-10-18T21:38:39.382Z,97069.88
2022-10-18T21:41:11.270Z,97067.25
2022-10-18T21:43:40.799Z,97069.63
2022-10-18T21:46:10.899Z,97067.75
2022-10-18T21:48:38.927Z,97058.00
2022-10-18T21:51:08.050Z,97063.13
2022-10-18T21:53:36.015Z,97059.94
2022-10-18T21:56:07.636Z,97073.31
2022-10-18T21:58:35.870Z,97055.47
2022-10-18T22:01:09.362Z,97060.56
2022-10-18T22:03:37.171Z,97058.41
2022-10-18T22:06:07.642Z,97059.63
2022-10-18T22:08:35.388Z,97049.38
2022-10-18T22:11:03.640Z,97053.63
2022-10-18T22:13:31.436Z,97046.25
2022-10-18T22:16:01.739Z,97047.13
2022-10-18T22:18:30.926Z,97051.97
2022-10-18T22:21:00.581Z,97050.81
2022-10-18T22:23:32.794Z,97051.94
2022-10-18T22:26:03.647Z,97063.75
2022-10-18T22:28:31.168Z,97051.38
2022-10-18T22:30:59.016Z,97047.41
2022-10-18T22:33:26.514Z,97049.09
2022-10-18T22:35:55.382Z,97054.31
2022-10-18T22:38:22.807Z,97031.75
2022-10-18T22:40:51.685Z,97034.72
2022-10-18T22:43:19.694Z,97042.72
2022-10-18T22:45:47.121Z,97039.06
2022-10-18T22:48:14.552Z,97032.25
2022-10-18T22:50:41.956Z,97038.16
2022-10-18T22:53:10.700Z,97040.19
2022-10-18T22:55:38.112Z,97037.88
2022-10-18T22:58:05.519Z,97031.09
2022-10-18T23:00:32.970Z,97044.31
2022-10-18T23:03:00.540Z,97029.28
2022-10-18T23:05:27.948Z,97029.72
2022-10-18T23:07:55.365Z,97021.91
2022-10-18T23:10:24.139Z,97028.41
2022-10-18T23:12:51.584Z,97015.63
2022-10-18T23:15:19.002Z,97019.72
2022-10-18T23:17:46.756Z,97014.97
2022-10-18T23:20:14.196Z,97012.63
2022-10-18T23:22:41.620Z,97021.47
2022-10-18T23:25:09.850Z,97019.97
2022-10-18T23:27:38.649Z,97021.63
2022-10-18T23:30:07.432Z,97017.28
2022-10-18T23:32:35.107Z,97010.50
2022-10-18T23:35:02.758Z,97007.16
2022-10-18T23:37:30.251Z,97016.97
2022-10-18T23:39:57.820Z,97009.09
2022-10-18T23:42:25.357Z,97005.91
2022-10-18T23:44:54.116Z,97011.78
2022-10-18T23:47:21.575Z,97009.25
2022-10-18T23:49:48.997Z,97015.88
2022-10-18T23:52:16.452Z,97017.13
2022-10-18T23:57:13.165Z,97016.59
2022-10-18T23:59:40.800Z,97011.66
